Terminal Aerodrome Forecast
Issued by NWS

Home | Current Version | Previous Version | Text Only | Print | Product List | Glossary On
Versions: 1 2 3 4 5 6 7 8 9 10 11
356
FTUS45 KABQ 102339
TAFROW
TAF
KROW 102339Z 1100/1124 17010KT P6SM SKC
     FM110200 24006KT P6SM SKC
     FM111000 32006KT P6SM SKC=

USA.gov is the U.S. government's official web portal to all federal, state and local government web resources and services.